createdAt,value
2023-03-17T00:01:52.629Z,25.44
2023-03-17T00:03:52.680Z,25.44
2023-03-17T00:05:52.618Z,25.39
2023-03-17T00:07:52.618Z,25.47
2023-03-17T00:09:52.608Z,25.40
2023-03-17T00:11:52.613Z,25.42
2023-03-17T00:13:52.641Z,25.50
2023-03-17T00:15:52.640Z,25.45
2023-03-17T00:17:52.634Z,25.40
2023-03-17T00:19:52.623Z,25.47
2023-03-17T00:21:52.564Z,25.45
2023-03-17T00:23:52.613Z,25.36
2023-03-17T00:25:52.656Z,25.40
2023-03-17T00:27:52.560Z,25.47
2023-03-17T00:29:52.593Z,25.41
2023-03-17T00:31:52.662Z,25.39
2023-03-17T00:33:52.654Z,25.47
2023-03-17T00:35:52.690Z,25.49
2023-03-17T00:37:52.679Z,25.52
2023-03-17T00:39:52.686Z,25.49
2023-03-17T00:41:52.635Z,25.43
2023-03-17T00:43:52.641Z,25.51
2023-03-17T00:45:52.725Z,25.43
2023-03-17T00:47:52.671Z,25.40
2023-03-17T00:49:52.169Z,25.44
2023-03-17T00:51:52.681Z,25.45
2023-03-17T00:53:52.653Z,25.42
2023-03-17T00:55:52.678Z,25.42
2023-03-17T00:57:52.660Z,25.47
2023-03-17T00:59:52.605Z,25.42
2023-03-17T01:01:52.678Z,25.46
2023-03-17T01:03:52.677Z,25.42
2023-03-17T01:05:52.641Z,25.38
2023-03-17T01:07:52.699Z,25.37
2023-03-17T01:09:52.670Z,25.46
2023-03-17T01:11:52.717Z,25.48
2023-03-17T01:13:52.704Z,25.36
2023-03-17T01:15:52.627Z,25.36
2023-03-17T01:17:52.639Z,25.36
2023-03-17T01:19:52.676Z,25.23
2023-03-17T01:21:52.729Z,25.36
2023-03-17T01:23:52.701Z,25.35
2023-03-17T01:25:52.200Z,25.32
2023-03-17T01:27:52.681Z,25.40
2023-03-17T01:29:52.748Z,25.33
2023-03-17T01:31:52.738Z,25.42
2023-03-17T01:33:52.697Z,25.39
2023-03-17T01:35:52.733Z,25.23
2023-03-17T01:37:52.722Z,25.33
2023-03-17T01:39:52.743Z,25.38
2023-03-17T01:41:52.665Z,25.26
2023-03-17T01:43:52.688Z,25.22
2023-03-17T01:45:52.793Z,25.23
2023-03-17T01:47:52.755Z,25.36
2023-03-17T01:49:52.716Z,25.39
2023-03-17T01:51:52.729Z,25.43
2023-03-17T01:53:52.778Z,25.42
2023-03-17T01:55:52.741Z,25.40
2023-03-17T01:57:52.768Z,25.47
2023-03-17T01:59:52.785Z,25.44
2023-03-17T02:01:52.746Z,25.47
2023-03-17T02:03:52.743Z,25.50
2023-03-17T02:05:52.755Z,25.52
2023-03-17T02:07:52.765Z,25.38
2023-03-17T02:09:52.798Z,25.43
2023-03-17T02:11:52.745Z,25.46
2023-03-17T02:15:52.789Z,25.42
2023-03-17T02:17:52.758Z,25.43
2023-03-17T02:19:52.754Z,25.41
2023-03-17T02:21:52.789Z,25.48
2023-03-17T02:23:52.788Z,25.43
2023-03-17T02:25:52.777Z,25.44
2023-03-17T02:27:52.731Z,25.52
2023-03-17T02:29:52.708Z,25.49
2023-03-17T02:31:52.801Z,25.52
2023-03-17T02:33:52.866Z,25.46
2023-03-17T02:35:52.769Z,25.49
2023-03-17T02:37:52.704Z,25.46
2023-03-17T02:39:52.776Z,25.52
2023-03-17T02:41:52.793Z,25.43
2023-03-17T02:43:52.747Z,25.46
2023-03-17T02:45:52.778Z,25.43
2023-03-17T02:47:52.780Z,25.47
2023-03-17T02:49:52.798Z,25.46
2023-03-17T02:51:52.799Z,25.42
2023-03-17T02:53:52.827Z,25.50
2023-03-17T02:55:52.768Z,25.44
2023-03-17T02:57:52.332Z,25.46
2023-03-17T02:59:52.829Z,25.44
2023-03-17T03:01:52.737Z,24.51
2023-03-17T03:03:52.774Z,24.28
2023-03-17T03:05:52.845Z,24.27
2023-03-17T03:07:52.784Z,24.12
2023-03-17T03:09:52.822Z,24.12
2023-03-17T03:11:52.770Z,24.08
2023-03-17T03:13:52.825Z,24.08
2023-03-17T03:15:52.911Z,24.05
2023-03-17T03:17:52.846Z,23.98
2023-03-17T03:19:52.829Z,23.96
2023-03-17T03:21:52.856Z,23.97
2023-03-17T03:23:52.809Z,23.93
2023-03-17T03:25:52.817Z,23.98
2023-03-17T03:27:52.776Z,23.95
2023-03-17T03:29:52.794Z,23.87
2023-03-17T03:31:52.817Z,23.96
2023-03-17T03:33:52.869Z,23.92
2023-03-17T03:35:52.856Z,23.90
2023-03-17T03:37:52.877Z,23.86
2023-03-17T03:39:52.844Z,23.81
2023-03-17T03:41:52.845Z,23.77
2023-03-17T03:43:52.838Z,23.83
2023-03-17T03:45:52.874Z,23.81
2023-03-17T03:47:52.983Z,23.85
2023-03-17T03:49:52.863Z,23.79
2023-03-17T03:51:52.884Z,23.81
2023-03-17T03:53:52.877Z,23.77
2023-03-17T03:55:52.872Z,23.79
2023-03-17T03:57:52.864Z,23.68
2023-03-17T03:59:52.889Z,23.70
2023-03-17T04:01:52.823Z,23.77
2023-03-17T04:03:52.845Z,23.81
2023-03-17T04:05:52.875Z,23.67
2023-03-17T04:07:52.851Z,23.81
2023-03-17T04:09:52.873Z,23.81
2023-03-17T04:11:52.835Z,23.53
2023-03-17T04:13:52.884Z,23.66
2023-03-17T04:15:53.086Z,23.65
2023-03-17T04:17:52.875Z,23.69
2023-03-17T04:19:52.886Z,23.63
2023-03-17T04:21:54.688Z,23.52
2023-03-17T04:23:52.840Z,23.19
2023-03-17T04:25:52.916Z,23.43
2023-03-17T04:27:52.903Z,23.44
2023-03-17T04:29:52.925Z,23.30
2023-03-17T04:31:52.999Z,23.34
2023-03-17T04:33:52.900Z,23.39
2023-03-17T04:35:52.966Z,23.39
2023-03-17T04:37:52.906Z,23.26
2023-03-17T04:39:53.032Z,22.97
2023-03-17T04:41:52.756Z,23.36
2023-03-17T04:43:52.969Z,23.22
2023-03-17T04:45:52.993Z,23.38
2023-03-17T04:47:52.876Z,23.44
2023-03-17T04:49:52.904Z,23.54
2023-03-17T04:51:52.840Z,23.50
2023-03-17T04:53:52.921Z,23.50
2023-03-17T04:55:52.917Z,23.50
2023-03-17T04:57:52.925Z,23.44
2023-03-17T04:59:52.872Z,23.55
2023-03-17T05:01:53.031Z,23.20
2023-03-17T05:03:52.916Z,23.20
2023-03-17T05:05:52.943Z,23.23
2023-03-17T05:07:52.939Z,23.23
2023-03-17T05:09:52.935Z,23.15
2023-03-17T05:11:52.928Z,23.13
2023-03-17T05:13:52.878Z,23.17
2023-03-17T05:15:52.980Z,23.20
2023-03-17T05:17:53.006Z,23.25
2023-03-17T05:19:52.948Z,23.13
2023-03-17T05:21:52.955Z,23.14
2023-03-17T05:23:54.902Z,23.19
2023-03-17T05:25:52.963Z,23.20
2023-03-17T05:27:52.888Z,23.18
2023-03-17T05:29:52.916Z,23.20
2023-03-17T05:31:52.986Z,23.25
2023-03-17T05:33:52.939Z,23.34
2023-03-17T05:35:53.019Z,23.39
2023-03-17T05:37:52.910Z,23.50
2023-03-17T05:39:52.979Z,23.40
2023-03-17T05:41:52.952Z,23.49
2023-03-17T05:43:52.948Z,23.43
2023-03-17T05:45:53.015Z,23.33
2023-03-17T05:47:52.984Z,23.41
2023-03-17T05:49:52.996Z,23.43
2023-03-17T05:51:53.045Z,23.51
2023-03-17T05:53:52.999Z,23.49
2023-03-17T05:55:53.021Z,23.39
2023-03-17T05:57:53.031Z,23.41
2023-03-17T05:59:52.980Z,23.47
2023-03-17T06:01:53.059Z,23.42
2023-03-17T06:03:53.073Z,23.49
2023-03-17T06:05:52.977Z,23.41
2023-03-17T06:07:56.362Z,23.53
2023-03-17T06:09:52.972Z,23.23
2023-03-17T06:11:53.066Z,23.50
2023-03-17T06:13:52.984Z,23.51
2023-03-17T06:15:53.124Z,23.53
2023-03-17T06:17:53.058Z,23.53
2023-03-17T06:19:53.024Z,23.54
2023-03-17T06:21:52.540Z,23.64
2023-03-17T06:23:52.954Z,23.63
2023-03-17T06:25:52.960Z,23.70
2023-03-17T06:27:53.040Z,23.70
2023-03-17T06:29:53.134Z,23.79
2023-03-17T06:31:53.023Z,23.79
2023-03-17T06:33:53.016Z,23.75
2023-03-17T06:35:53.140Z,23.71
2023-03-17T06:37:52.533Z,23.77
2023-03-17T06:39:53.025Z,23.81
2023-03-17T06:41:53.082Z,23.81
2023-03-17T06:43:53.017Z,23.82
2023-03-17T06:45:53.034Z,23.84
2023-03-17T06:47:53.070Z,23.90
2023-03-17T06:49:53.042Z,23.93
2023-03-17T06:51:53.048Z,24.00
2023-03-17T06:53:53.046Z,23.97
2023-03-17T06:55:52.995Z,24.02
2023-03-17T06:57:53.000Z,23.95
2023-03-17T06:59:52.986Z,24.00
2023-03-17T07:01:53.111Z,23.96
2023-03-17T07:03:53.024Z,23.97
2023-03-17T07:05:53.054Z,24.10
2023-03-17T07:07:53.080Z,24.11
2023-03-17T07:09:53.068Z,24.20
2023-03-17T07:11:53.144Z,24.35
2023-03-17T07:13:53.083Z,24.40
2023-03-17T07:15:55.289Z,24.50
2023-03-17T07:17:53.142Z,24.51
2023-03-17T07:19:53.076Z,24.59
2023-03-17T07:21:53.083Z,24.65
2023-03-17T07:23:53.080Z,24.59
2023-03-17T07:25:53.041Z,24.66
2023-03-17T07:27:53.068Z,24.75
2023-03-17T07:29:52.605Z,24.69
2023-03-17T07:31:53.288Z,24.81
2023-03-17T07:33:53.502Z,24.87
2023-03-17T07:35:53.191Z,25.04
2023-03-17T07:37:53.089Z,25.11
2023-03-17T07:39:53.086Z,25.15
2023-03-17T07:41:53.217Z,25.21
2023-03-17T07:43:53.167Z,25.22
2023-03-17T07:45:53.129Z,24.95
2023-03-17T07:47:53.076Z,25.19
2023-03-17T07:49:53.099Z,25.26
2023-03-17T07:51:53.111Z,25.41
2023-03-17T07:53:53.118Z,25.42
2023-03-17T07:55:53.112Z,25.46
2023-03-17T07:57:53.340Z,25.45
2023-03-17T07:59:53.048Z,25.61
2023-03-17T08:01:53.212Z,25.75
2023-03-17T08:03:53.205Z,25.82
2023-03-17T08:05:53.104Z,25.89
2023-03-17T08:07:53.146Z,25.86
2023-03-17T08:09:53.138Z,25.96
2023-03-17T08:11:53.131Z,26.16
2023-03-17T08:13:53.146Z,25.80
2023-03-17T08:15:53.110Z,25.05
2023-03-17T08:17:53.185Z,25.00
2023-03-17T08:19:53.135Z,25.09
2023-03-17T08:21:53.113Z,25.15
2023-03-17T08:23:53.152Z,25.19
2023-03-17T08:25:53.135Z,25.19
2023-03-17T08:27:53.111Z,25.21
2023-03-17T08:29:53.160Z,25.21
2023-03-17T08:31:53.328Z,25.21
2023-03-17T08:33:53.168Z,25.24
2023-03-17T08:35:53.163Z,25.28
2023-03-17T08:37:56.101Z,25.25
2023-03-17T08:39:53.170Z,25.24
2023-03-17T08:41:53.179Z,25.22
2023-03-17T08:43:53.149Z,25.19
2023-03-17T08:45:53.162Z,25.21
2023-03-17T08:47:53.096Z,25.12
2023-03-17T08:49:53.169Z,25.13
2023-03-17T08:51:53.244Z,25.21
2023-03-17T08:53:53.160Z,25.12
2023-03-17T08:55:53.135Z,26.81
2023-03-17T08:57:53.159Z,26.85
2023-03-17T08:59:53.062Z,24.94
2023-03-17T09:01:53.219Z,24.98
2023-03-17T09:03:53.179Z,24.95
2023-03-17T09:05:53.148Z,25.00
2023-03-17T09:07:53.162Z,24.95
2023-03-17T09:09:53.182Z,25.05
2023-03-17T09:11:53.151Z,25.05
2023-03-17T09:13:53.199Z,26.93
2023-03-17T09:15:53.177Z,26.91
2023-03-17T09:17:53.220Z,25.03
2023-03-17T09:19:53.190Z,24.95
2023-03-17T09:21:53.130Z,27.08
2023-03-17T09:23:53.170Z,25.00
2023-03-17T09:25:53.169Z,26.92
2023-03-17T09:27:53.099Z,25.22
2023-03-17T09:29:53.201Z,25.29
2023-03-17T09:31:53.197Z,25.31
2023-03-17T09:33:53.221Z,25.26
2023-03-17T09:35:52.743Z,25.32
2023-03-17T09:37:53.206Z,25.35
2023-03-17T09:39:53.219Z,25.33
2023-03-17T09:41:53.236Z,26.65
2023-03-17T09:43:53.212Z,24.95
2023-03-17T09:45:53.250Z,26.78
2023-03-17T09:47:53.244Z,25.09
2023-03-17T09:49:53.234Z,24.99
2023-03-17T09:51:53.207Z,26.79
2023-03-17T09:53:53.248Z,25.05
2023-03-17T09:55:53.250Z,24.97
2023-03-17T09:57:53.241Z,24.95
2023-03-17T09:59:53.262Z,24.95
2023-03-17T10:01:53.354Z,25.09
2023-03-17T10:03:53.234Z,24.68
2023-03-17T10:05:53.307Z,25.05
2023-03-17T10:07:53.199Z,26.85
2023-03-17T10:09:53.249Z,24.97
2023-03-17T10:11:53.179Z,26.79
2023-03-17T10:13:53.281Z,24.97
2023-03-17T10:15:53.210Z,24.94
2023-03-17T10:17:53.242Z,24.91
2023-03-17T10:19:53.233Z,24.95
2023-03-17T10:21:53.239Z,26.94
2023-03-17T10:23:53.263Z,24.94
2023-03-17T10:25:53.278Z,26.68
2023-03-17T10:27:53.275Z,25.05
2023-03-17T10:29:53.243Z,26.80
2023-03-17T10:31:53.382Z,26.85
2023-03-17T10:33:53.264Z,24.94
2023-03-17T10:35:53.218Z,25.01
2023-03-17T10:38:04.362Z,24.97
2023-03-17T10:39:53.259Z,24.95
2023-03-17T10:41:53.269Z,25.04
2023-03-17T10:43:53.302Z,25.09
2023-03-17T10:45:53.310Z,26.81
2023-03-17T10:47:53.318Z,26.88
2023-03-17T10:49:53.278Z,26.94
2023-03-17T10:51:53.246Z,26.94
2023-03-17T10:53:53.259Z,24.95
2023-03-17T10:55:53.237Z,24.96
2023-03-17T10:57:53.293Z,25.35
2023-03-17T10:59:53.379Z,26.82
2023-03-17T11:01:53.280Z,26.85
2023-03-17T11:03:53.336Z,26.07
2023-03-17T11:05:53.249Z,25.06
2023-03-17T11:07:53.345Z,26.77
2023-03-17T11:09:53.334Z,26.89
2023-03-17T11:11:53.290Z,26.53
2023-03-17T11:13:53.357Z,25.08
2023-03-17T11:15:53.337Z,25.22
2023-03-17T11:17:53.335Z,25.12
2023-03-17T11:19:53.316Z,25.15
2023-03-17T11:21:53.323Z,25.04
2023-03-17T11:23:53.317Z,24.92
2023-03-17T11:25:53.321Z,25.01
2023-03-17T11:27:53.361Z,26.32
2023-03-17T11:29:53.286Z,26.50
2023-03-17T11:31:53.283Z,24.85
2023-03-17T11:33:53.353Z,25.65
2023-03-17T11:35:53.409Z,26.80
2023-03-17T11:37:53.313Z,25.25
2023-03-17T11:39:53.360Z,25.40
2023-03-17T11:41:53.354Z,25.35
2023-03-17T11:43:53.339Z,25.09
2023-03-17T11:45:53.359Z,24.99
2023-03-17T11:47:53.378Z,25.08
2023-03-17T11:49:53.357Z,25.09
2023-03-17T11:51:53.342Z,25.21
2023-03-17T11:53:53.263Z,26.98
2023-03-17T11:55:53.289Z,24.97
2023-03-17T11:57:53.393Z,26.94
2023-03-17T11:59:53.314Z,25.04
2023-03-17T12:01:53.330Z,25.11
2023-03-17T12:03:53.464Z,25.09
2023-03-17T12:05:53.408Z,25.05
2023-03-17T12:07:53.357Z,25.18
2023-03-17T12:09:53.354Z,25.09
2023-03-17T12:11:53.361Z,27.08
2023-03-17T12:13:53.387Z,27.00
2023-03-17T12:15:53.387Z,26.53
2023-03-17T12:17:53.334Z,25.01
2023-03-17T12:19:53.356Z,26.53
2023-03-17T12:21:53.251Z,25.43
2023-03-17T12:23:53.365Z,25.33
2023-03-17T12:25:53.370Z,25.37
2023-03-17T12:27:53.419Z,25.38
2023-03-17T12:29:53.378Z,25.31
2023-03-17T12:31:53.339Z,25.29
2023-03-17T12:33:53.393Z,25.33
2023-03-17T12:35:53.483Z,25.38
2023-03-17T12:37:52.889Z,25.01
2023-03-17T12:39:53.315Z,26.71
2023-03-17T12:41:53.386Z,26.94
2023-03-17T12:43:53.406Z,25.06
2023-03-17T12:45:54.367Z,24.99
2023-03-17T12:47:53.419Z,25.13
2023-03-17T12:49:53.473Z,25.09
2023-03-17T12:51:53.433Z,25.14
2023-03-17T12:53:53.398Z,25.18
2023-03-17T12:55:53.420Z,25.16
2023-03-17T12:57:53.432Z,25.17
2023-03-17T12:59:53.381Z,25.11
2023-03-17T13:01:53.412Z,25.09
2023-03-17T13:03:53.290Z,27.03
2023-03-17T13:05:53.423Z,25.12
2023-03-17T13:07:53.406Z,27.03
2023-03-17T13:09:53.368Z,25.09
2023-03-17T13:11:53.422Z,25.05
2023-03-17T13:13:53.401Z,25.03
2023-03-17T13:15:53.435Z,25.17
2023-03-17T13:17:53.428Z,25.13
2023-03-17T13:19:53.364Z,25.17
2023-03-17T13:21:53.487Z,25.21
2023-03-17T13:23:53.438Z,25.24
2023-03-17T13:25:53.684Z,25.24
2023-03-17T13:27:53.453Z,26.98
2023-03-17T13:29:53.489Z,27.06
2023-03-17T13:31:53.548Z,27.00
2023-03-17T13:33:53.483Z,25.51
2023-03-17T13:35:53.571Z,25.38
2023-03-17T13:37:53.468Z,25.42
2023-03-17T13:39:53.451Z,25.40
2023-03-17T13:41:53.459Z,25.51
2023-03-17T13:43:53.444Z,25.52
2023-03-17T13:45:53.465Z,25.23
2023-03-17T13:47:53.508Z,27.04
2023-03-17T13:49:53.469Z,27.05
2023-03-17T13:51:59.875Z,25.51
2023-03-17T13:53:53.561Z,24.97
2023-03-17T13:55:53.498Z,25.07
2023-03-17T13:57:53.510Z,25.08
2023-03-17T13:59:53.447Z,25.46
2023-03-17T14:01:53.481Z,25.43
2023-03-17T14:03:53.505Z,25.50
2023-03-17T14:05:53.518Z,25.05
2023-03-17T14:07:53.513Z,25.12
2023-03-17T14:09:53.508Z,25.20
2023-03-17T14:11:53.468Z,25.31
2023-03-17T14:13:53.534Z,25.92
2023-03-17T14:15:53.575Z,26.57
2023-03-17T14:17:53.458Z,25.09
2023-03-17T14:19:53.515Z,26.77
2023-03-17T14:21:53.449Z,25.42
2023-03-17T14:23:53.554Z,25.10
2023-03-17T14:25:52.997Z,25.09
2023-03-17T14:27:53.504Z,27.02
2023-03-17T14:29:53.506Z,25.38
2023-03-17T14:31:53.618Z,25.47
2023-03-17T14:33:53.538Z,25.50
2023-03-17T14:35:53.461Z,25.49
2023-03-17T14:37:53.501Z,25.60
2023-03-17T14:39:53.526Z,25.28
2023-03-17T14:41:53.514Z,25.28
2023-03-17T14:43:53.478Z,25.32
2023-03-17T14:45:53.589Z,25.21
2023-03-17T14:47:53.526Z,25.24
2023-03-17T14:49:53.495Z,25.21
2023-03-17T14:51:53.524Z,26.21
2023-03-17T14:53:53.533Z,26.46
2023-03-17T14:55:53.570Z,25.05
2023-03-17T14:57:53.570Z,25.51
2023-03-17T14:59:53.636Z,25.14
2023-03-17T15:01:53.645Z,25.21
2023-03-17T15:03:53.572Z,25.51
2023-03-17T15:05:53.531Z,25.51
2023-03-17T15:07:53.537Z,25.41
2023-03-17T15:09:53.499Z,25.46
2023-03-17T15:11:53.549Z,25.39
2023-03-17T15:13:53.501Z,25.26
2023-03-17T15:15:53.587Z,25.33
2023-03-17T15:17:53.555Z,25.37
2023-03-17T15:19:53.049Z,25.24
2023-03-17T15:21:53.448Z,25.08
2023-03-17T15:23:53.567Z,25.47
2023-03-17T15:25:53.601Z,25.37
2023-03-17T15:27:53.520Z,25.39
2023-03-17T15:29:53.600Z,25.37
2023-03-17T15:31:53.697Z,25.42
2023-03-17T15:33:53.631Z,25.35
2023-03-17T15:35:53.595Z,25.23
2023-03-17T15:37:53.599Z,25.24
2023-03-17T15:39:53.780Z,25.09
2023-03-17T15:41:53.592Z,25.18
2023-03-17T15:43:53.653Z,25.18
2023-03-17T15:45:53.569Z,25.13
2023-03-17T15:47:53.580Z,25.15
2023-03-17T15:49:53.583Z,25.06
2023-03-17T15:51:53.579Z,25.04
2023-03-17T15:53:53.567Z,24.99
2023-03-17T15:55:53.581Z,25.06
2023-03-17T15:57:55.665Z,25.08
2023-03-17T15:59:53.617Z,25.10
2023-03-17T16:01:53.636Z,24.61
2023-03-17T16:03:53.741Z,24.52
2023-03-17T16:05:53.609Z,24.44
2023-03-17T16:07:53.648Z,24.35
2023-03-17T16:09:53.600Z,24.27
2023-03-17T16:11:53.621Z,24.23
2023-03-17T16:13:53.596Z,24.12
2023-03-17T16:15:53.710Z,24.12
2023-03-17T16:17:53.561Z,24.11
2023-03-17T16:19:53.638Z,24.10
2023-03-17T16:21:53.607Z,24.05
2023-03-17T16:23:53.543Z,24.08
2023-03-17T16:25:55.467Z,24.04
2023-03-17T16:27:53.770Z,23.94
2023-03-17T16:29:53.593Z,23.96
2023-03-17T16:31:53.625Z,23.96
2023-03-17T16:33:53.638Z,23.97
2023-03-17T16:35:53.690Z,24.04
2023-03-17T16:37:53.647Z,24.07
2023-03-17T16:39:53.587Z,24.05
2023-03-17T16:41:53.628Z,24.05
2023-03-17T16:43:53.572Z,23.98
2023-03-17T16:45:53.657Z,23.98
2023-03-17T16:47:53.648Z,23.95
2023-03-17T16:49:53.596Z,23.72
2023-03-17T16:51:53.617Z,23.54
2023-03-17T16:53:53.510Z,23.57
2023-03-17T16:55:53.630Z,23.50
2023-03-17T16:57:53.699Z,23.53
2023-03-17T16:59:53.644Z,23.71
2023-03-17T17:01:53.702Z,23.81
2023-03-17T17:03:53.687Z,23.84
2023-03-17T17:05:53.657Z,23.84
2023-03-17T17:07:56.063Z,23.81
2023-03-17T17:09:53.684Z,23.82
2023-03-17T17:11:53.666Z,23.88
2023-03-17T17:13:53.678Z,23.81
2023-03-17T17:15:53.715Z,23.87
2023-03-17T17:17:53.664Z,23.81
2023-03-17T17:19:53.686Z,23.75
2023-03-17T17:21:53.655Z,23.81
2023-03-17T17:23:53.703Z,23.73
2023-03-17T17:25:53.666Z,23.76
2023-03-17T17:27:53.628Z,23.74
2023-03-17T17:29:53.709Z,23.72
2023-03-17T17:31:53.877Z,23.76
2023-03-17T17:33:53.699Z,23.77
2023-03-17T17:35:53.775Z,23.73
2023-03-17T17:37:53.730Z,23.75
2023-03-17T17:39:53.671Z,23.68
2023-03-17T17:41:53.706Z,23.70
2023-03-17T17:43:53.874Z,23.80
2023-03-17T17:45:53.738Z,23.68
2023-03-17T17:47:53.724Z,23.77
2023-03-17T17:49:53.741Z,23.73
2023-03-17T17:51:53.718Z,23.80
2023-03-17T17:53:53.733Z,23.67
2023-03-17T17:55:53.708Z,23.70
2023-03-17T17:57:53.706Z,23.62
2023-03-17T17:59:53.714Z,23.65
2023-03-17T18:01:53.689Z,23.64
2023-03-17T18:03:53.756Z,23.67
2023-03-17T18:05:53.748Z,23.65
2023-03-17T18:07:53.658Z,23.70
2023-03-17T18:09:53.630Z,23.66
2023-03-17T18:11:53.688Z,23.68
2023-03-17T18:13:53.756Z,23.63
2023-03-17T18:15:53.741Z,23.59
2023-03-17T18:17:53.752Z,23.59
2023-03-17T18:19:53.744Z,23.62
2023-03-17T18:21:53.660Z,23.61
2023-03-17T18:23:53.760Z,23.63
2023-03-17T18:25:53.734Z,23.63
2023-03-17T18:27:53.768Z,23.59
2023-03-17T18:29:53.732Z,23.58
2023-03-17T18:31:53.844Z,23.57
2023-03-17T18:33:53.756Z,23.50
2023-03-17T18:35:53.810Z,23.63
2023-03-17T18:37:53.791Z,23.55
2023-03-17T18:40:12.080Z,23.57
2023-03-17T18:41:53.694Z,23.53
2023-03-17T18:43:53.742Z,23.53
2023-03-17T18:45:53.812Z,23.54
2023-03-17T18:47:53.699Z,23.54
2023-03-17T18:49:53.905Z,23.63
2023-03-17T18:51:53.816Z,23.53
2023-03-17T18:53:53.779Z,23.57
2023-03-17T18:55:53.806Z,23.53
2023-03-17T18:57:53.822Z,23.47
2023-03-17T18:59:53.666Z,23.52
2023-03-17T19:01:53.795Z,26.04
2023-03-17T19:03:53.804Z,26.93
2023-03-17T19:05:53.748Z,27.00
2023-03-17T19:07:53.822Z,27.07
2023-03-17T19:09:53.783Z,27.05
2023-03-17T19:11:53.826Z,27.08
2023-03-17T19:13:53.821Z,27.07
2023-03-17T19:15:53.304Z,27.16
2023-03-17T19:17:53.770Z,27.11
2023-03-17T19:19:53.789Z,27.22
2023-03-17T19:21:53.758Z,27.16
2023-03-17T19:23:53.821Z,27.20
2023-03-17T19:25:53.758Z,27.16
2023-03-17T19:27:53.833Z,27.17
2023-03-17T19:29:53.820Z,25.85
2023-03-17T19:31:53.885Z,25.54
2023-03-17T19:33:53.793Z,25.52
2023-03-17T19:35:53.872Z,25.52
2023-03-17T19:37:53.850Z,25.52
2023-03-17T19:39:53.864Z,25.52
2023-03-17T19:41:53.815Z,25.52
2023-03-17T19:43:53.815Z,25.62
2023-03-17T19:45:53.847Z,25.47
2023-03-17T19:47:53.943Z,25.54
2023-03-17T19:49:53.840Z,25.60
2023-03-17T19:51:53.337Z,25.47
2023-03-17T19:53:53.849Z,25.52
2023-03-17T19:55:53.789Z,25.50
2023-03-17T19:57:53.851Z,25.52
2023-03-17T19:59:53.873Z,25.50
2023-03-17T20:01:53.889Z,25.51
2023-03-17T20:03:53.827Z,25.51
2023-03-17T20:05:53.853Z,25.54
2023-03-17T20:07:53.883Z,25.51
2023-03-17T20:09:53.909Z,25.52
2023-03-17T20:11:53.880Z,25.57
2023-03-17T20:13:53.887Z,25.52
2023-03-17T20:15:53.900Z,25.50
2023-03-17T20:17:53.870Z,25.50
2023-03-17T20:19:53.837Z,25.52
2023-03-17T20:21:53.859Z,25.47
2023-03-17T20:23:53.893Z,25.53
2023-03-17T20:25:53.913Z,25.52
2023-03-17T20:27:53.879Z,25.51
2023-03-17T20:29:53.868Z,25.50
2023-03-17T20:31:53.863Z,25.47
2023-03-17T20:33:53.869Z,25.51
2023-03-17T20:35:53.934Z,25.52
2023-03-17T20:37:53.882Z,25.51
2023-03-17T20:39:53.880Z,25.51
2023-03-17T20:41:53.868Z,25.52
2023-03-17T20:43:53.737Z,25.52
2023-03-17T20:45:53.864Z,25.56
2023-03-17T20:47:53.900Z,25.52
2023-03-17T20:49:53.886Z,25.51
2023-03-17T20:51:53.896Z,25.49
2023-03-17T20:53:53.961Z,25.52
2023-03-17T20:55:53.881Z,25.47
2023-03-17T20:57:53.852Z,25.52
2023-03-17T20:59:53.804Z,25.58
2023-03-17T21:01:53.956Z,25.52
2023-03-17T21:03:53.919Z,25.50
2023-03-17T21:05:53.961Z,25.52
2023-03-17T21:07:53.860Z,25.52
2023-03-17T21:09:53.939Z,25.56
2023-03-17T21:11:53.895Z,25.52
2023-03-17T21:13:53.755Z,25.53
2023-03-17T21:15:53.933Z,25.58
2023-03-17T21:17:53.925Z,25.61
2023-03-17T21:19:53.894Z,25.54
2023-03-17T21:21:53.890Z,25.52
2023-03-17T21:23:53.957Z,25.53
2023-03-17T21:25:53.951Z,25.60
2023-03-17T21:27:53.929Z,25.56
2023-03-17T21:29:53.898Z,25.60
2023-03-17T21:31:53.960Z,25.52
2023-03-17T21:33:53.953Z,25.53
2023-03-17T21:35:53.998Z,25.52
2023-03-17T21:37:53.967Z,25.60
2023-03-17T21:39:53.880Z,25.52
2023-03-17T21:41:53.939Z,25.54
2023-03-17T21:43:53.983Z,25.48
2023-03-17T21:45:53.978Z,25.53
2023-03-17T21:47:53.969Z,25.52
2023-03-17T21:49:53.940Z,25.57
2023-03-17T21:51:53.970Z,25.56
2023-03-17T21:53:53.972Z,25.52
2023-03-17T21:55:53.941Z,25.61
2023-03-17T21:57:53.954Z,25.52
2023-03-17T21:59:53.466Z,25.52
2023-03-17T22:01:53.952Z,25.56
2023-03-17T22:03:53.956Z,25.55
2023-03-17T22:05:53.906Z,25.54
2023-03-17T22:07:53.900Z,25.53
2023-03-17T22:09:53.992Z,25.52
2023-03-17T22:11:53.975Z,25.51
2023-03-17T22:13:53.891Z,25.52
2023-03-17T22:15:53.983Z,25.52
2023-03-17T22:17:53.951Z,25.52
2023-03-17T22:19:54.020Z,25.52
2023-03-17T22:21:53.942Z,25.52
2023-03-17T22:23:54.060Z,25.53
2023-03-17T22:25:53.978Z,25.51
2023-03-17T22:27:54.011Z,25.58
2023-03-17T22:29:54.015Z,25.49
2023-03-17T22:31:54.081Z,25.49
2023-03-17T22:33:54.059Z,25.49
2023-03-17T22:35:54.072Z,25.50
2023-03-17T22:37:54.016Z,25.46
2023-03-17T22:39:53.973Z,25.46
2023-03-17T22:41:53.989Z,25.52
2023-03-17T22:43:54.018Z,25.51
2023-03-17T22:45:54.070Z,25.46
2023-03-17T22:47:54.062Z,25.50
2023-03-17T22:49:54.085Z,25.49
2023-03-17T22:51:54.079Z,25.47
2023-03-17T22:53:53.886Z,25.52
2023-03-17T22:55:54.069Z,25.41
2023-03-17T22:57:54.065Z,25.56
2023-03-17T22:59:53.937Z,25.45
2023-03-17T23:01:54.026Z,25.50
2023-03-17T23:03:54.043Z,25.50
2023-03-17T23:05:53.989Z,25.52
2023-03-17T23:07:54.048Z,25.47
2023-03-17T23:09:54.031Z,25.49
2023-03-17T23:11:53.991Z,25.50
2023-03-17T23:13:54.087Z,25.52
2023-03-17T23:15:54.060Z,25.50
2023-03-17T23:17:54.060Z,25.46
2023-03-17T23:19:54.055Z,25.52
2023-03-17T23:21:53.985Z,25.55
2023-03-17T23:23:54.096Z,25.49
2023-03-17T23:25:54.063Z,25.49
2023-03-17T23:27:54.088Z,25.52
2023-03-17T23:29:53.564Z,25.52
2023-03-17T23:31:54.083Z,25.50
2023-03-17T23:33:54.099Z,25.50
2023-03-17T23:35:54.103Z,25.56
2023-03-17T23:37:54.090Z,25.49
2023-03-17T23:39:53.994Z,25.51
2023-03-17T23:41:54.081Z,25.42
2023-03-17T23:43:54.063Z,25.52
2023-03-17T23:45:54.161Z,25.45
2023-03-17T23:47:54.087Z,25.35
2023-03-17T23:49:54.084Z,25.52
2023-03-17T23:51:54.100Z,25.20
2023-03-17T23:53:54.098Z,25.49
2023-03-17T23:55:54.307Z,25.49
2023-03-17T23:57:54.070Z,25.50
2023-03-17T23:59:54.105Z,25.48
